sensor_id;sensor_type;location;lat;lon;timestamp;pressure;altitude;pressure_sealevel;temperature;humidity
30216;BME280;17028;47.642;8.070;2022-10-16T00:03:37;93694.91;;;13.80;88.26
30216;BME280;17028;47.642;8.070;2022-10-16T00:08:38;93698.22;;;13.78;88.57
30216;BME280;17028;47.642;8.070;2022-10-16T00:13:41;93679.56;;;13.75;88.65
30216;BME280;17028;47.642;8.070;2022-10-16T00:18:43;93675.50;;;13.76;88.79
30216;BME280;17028;47.642;8.070;2022-10-16T00:23:44;93683.53;;;13.83;88.67
30216;BME280;17028;47.642;8.070;2022-10-16T00:28:49;93691.59;;;13.91;88.58
30216;BME280;17028;47.642;8.070;2022-10-16T00:33:50;93692.94;;;13.95;88.61
30216;BME280;17028;47.642;8.070;2022-10-16T00:38:57;93697.78;;;14.10;88.14
30216;BME280;17028;47.642;8.070;2022-10-16T00:44:03;93704.09;;;14.19;87.79
30216;BME280;17028;47.642;8.070;2022-10-16T00:49:07;93705.63;;;14.20;87.69
30216;BME280;17028;47.642;8.070;2022-10-16T00:54:13;93717.81;;;14.17;87.65
30216;BME280;17028;47.642;8.070;2022-10-16T00:59:25;93721.56;;;14.14;87.65
30216;BME280;17028;47.642;8.070;2022-10-16T01:04:38;93724.38;;;14.14;87.54
30216;BME280;17028;47.642;8.070;2022-10-16T01:09:44;93725.53;;;14.08;87.90
30216;BME280;17028;47.642;8.070;2022-10-16T01:15:02;93721.38;;;14.03;88.13
30216;BME280;17028;47.642;8.070;2022-10-16T01:20:40;93720.13;;;14.04;88.17
30216;BME280;17028;47.642;8.070;2022-10-16T01:25:49;93708.13;;;14.03;88.28
30216;BME280;17028;47.642;8.070;2022-10-16T01:30:58;93718.25;;;14.01;88.44
30216;BME280;17028;47.642;8.070;2022-10-16T01:36:05;93713.31;;;13.96;88.55
30216;BME280;17028;47.642;8.070;2022-10-16T01:41:16;93728.31;;;13.93;88.63
30216;BME280;17028;47.642;8.070;2022-10-16T01:46:20;93727.53;;;13.92;88.71
30216;BME280;17028;47.642;8.070;2022-10-16T01:51:23;93727.06;;;13.94;88.51
30216;BME280;17028;47.642;8.070;2022-10-16T01:56:25;93726.19;;;14.02;88.58
30216;BME280;17028;47.642;8.070;2022-10-16T02:01:29;93720.81;;;14.14;88.12
30216;BME280;17028;47.642;8.070;2022-10-16T02:06:32;93712.66;;;14.16;87.95
30216;BME280;17028;47.642;8.070;2022-10-16T02:11:33;93711.31;;;14.11;87.65
30216;BME280;17028;47.642;8.070;2022-10-16T02:16:39;93699.53;;;14.07;87.55
30216;BME280;17028;47.642;8.070;2022-10-16T02:21:44;93707.75;;;14.11;87.26
30216;BME280;17028;47.642;8.070;2022-10-16T02:26:52;93723.50;;;14.08;87.39
30216;BME280;17028;47.642;8.070;2022-10-16T02:32:02;93723.59;;;13.99;87.52
30216;BME280;17028;47.642;8.070;2022-10-16T02:37:05;93716.31;;;13.92;87.46
30216;BME280;17028;47.642;8.070;2022-10-16T02:42:14;93718.72;;;13.84;87.82
30216;BME280;17028;47.642;8.070;2022-10-16T02:47:16;93718.00;;;13.75;87.70
30216;BME280;17028;47.642;8.070;2022-10-16T02:52:17;93733.56;;;13.76;87.82
30216;BME280;17028;47.642;8.070;2022-10-16T02:57:18;93739.38;;;13.72;87.81
30216;BME280;17028;47.642;8.070;2022-10-16T03:02:19;93725.06;;;13.70;88.06
30216;BME280;17028;47.642;8.070;2022-10-16T03:07:20;93730.81;;;13.66;87.99
30216;BME280;17028;47.642;8.070;2022-10-16T03:12:21;93730.22;;;13.62;88.21
30216;BME280;17028;47.642;8.070;2022-10-16T03:17:23;93736.31;;;13.61;88.19
30216;BME280;17028;47.642;8.070;2022-10-16T03:22:24;93739.88;;;13.61;88.33
30216;BME280;17028;47.642;8.070;2022-10-16T03:27:25;93743.09;;;13.69;88.35
30216;BME280;17028;47.642;8.070;2022-10-16T03:32:26;93747.28;;;13.74;87.84
30216;BME280;17028;47.642;8.070;2022-10-16T03:37:29;93738.56;;;13.72;88.08
30216;BME280;17028;47.642;8.070;2022-10-16T03:42:30;93734.59;;;13.63;88.17
30216;BME280;17028;47.642;8.070;2022-10-16T03:47:31;93728.88;;;13.58;88.33
30216;BME280;17028;47.642;8.070;2022-10-16T03:52:33;93740.84;;;13.58;88.67
30216;BME280;17028;47.642;8.070;2022-10-16T03:57:34;93737.88;;;13.62;88.58
30216;BME280;17028;47.642;8.070;2022-10-16T04:02:35;93740.97;;;13.64;88.70
30216;BME280;17028;47.642;8.070;2022-10-16T04:07:36;93740.50;;;13.65;89.00
30216;BME280;17028;47.642;8.070;2022-10-16T04:12:38;93740.31;;;13.69;89.08
30216;BME280;17028;47.642;8.070;2022-10-16T04:17:39;93750.19;;;13.79;88.67
30216;BME280;17028;47.642;8.070;2022-10-16T04:22:41;93755.31;;;13.81;88.35
30216;BME280;17028;47.642;8.070;2022-10-16T04:27:42;93750.19;;;13.79;88.11
30216;BME280;17028;47.642;8.070;2022-10-16T04:32:47;93747.56;;;13.76;88.28
30216;BME280;17028;47.642;8.070;2022-10-16T04:37:48;93755.69;;;13.74;88.52
30216;BME280;17028;47.642;8.070;2022-10-16T04:42:51;93755.81;;;13.79;88.21
30216;BME280;17028;47.642;8.070;2022-10-16T04:47:52;93752.19;;;13.88;88.02
30216;BME280;17028;47.642;8.070;2022-10-16T04:52:53;93751.38;;;13.88;87.94
30216;BME280;17028;47.642;8.070;2022-10-16T04:57:54;93763.56;;;13.84;88.09
30216;BME280;17028;47.642;8.070;2022-10-16T05:02:55;93761.25;;;13.83;87.95
30216;BME280;17028;47.642;8.070;2022-10-16T05:07:56;93761.53;;;13.85;88.05
30216;BME280;17028;47.642;8.070;2022-10-16T05:12:57;93768.50;;;13.90;87.91
30216;BME280;17028;47.642;8.070;2022-10-16T05:17:58;93768.13;;;13.97;87.62
30216;BME280;17028;47.642;8.070;2022-10-16T05:22:59;93765.91;;;14.01;87.59
30216;BME280;17028;47.642;8.070;2022-10-16T05:28:00;93762.03;;;13.98;87.30
30216;BME280;17028;47.642;8.070;2022-10-16T05:33:01;93763.59;;;13.99;87.34
30216;BME280;17028;47.642;8.070;2022-10-16T05:38:02;93763.53;;;14.09;87.13
30216;BME280;17028;47.642;8.070;2022-10-16T05:43:03;93765.19;;;14.15;87.12
30216;BME280;17028;47.642;8.070;2022-10-16T05:48:04;93774.50;;;14.22;86.52
30216;BME280;17028;47.642;8.070;2022-10-16T05:53:05;93789.09;;;14.26;86.22
30216;BME280;17028;47.642;8.070;2022-10-16T05:58:06;93790.81;;;14.23;85.86
30216;BME280;17028;47.642;8.070;2022-10-16T06:03:08;93793.63;;;14.23;85.63
30216;BME280;17028;47.642;8.070;2022-10-16T06:08:09;93806.47;;;14.15;85.72
30216;BME280;17028;47.642;8.070;2022-10-16T06:13:11;93818.03;;;14.08;85.73
30216;BME280;17028;47.642;8.070;2022-10-16T06:18:12;93812.16;;;14.06;85.82
30216;BME280;17028;47.642;8.070;2022-10-16T06:23:13;93810.59;;;14.05;85.94
30216;BME280;17028;47.642;8.070;2022-10-16T06:28:14;93822.72;;;14.11;86.16
30216;BME280;17028;47.642;8.070;2022-10-16T06:33:15;93828.41;;;14.16;85.79
30216;BME280;17028;47.642;8.070;2022-10-16T06:38:16;93844.00;;;14.17;85.77
30216;BME280;17028;47.642;8.070;2022-10-16T06:43:17;93838.19;;;14.21;85.62
30216;BME280;17028;47.642;8.070;2022-10-16T06:48:19;93846.75;;;14.27;85.71
30216;BME280;17028;47.642;8.070;2022-10-16T06:53:20;93859.31;;;14.31;85.69
30216;BME280;17028;47.642;8.070;2022-10-16T06:58:21;93860.22;;;14.38;85.40
30216;BME280;17028;47.642;8.070;2022-10-16T07:03:22;93873.38;;;14.46;85.77
30216;BME280;17028;47.642;8.070;2022-10-16T07:08:23;93886.25;;;14.53;85.81
30216;BME280;17028;47.642;8.070;2022-10-16T07:13:24;93888.59;;;14.55;86.15
30216;BME280;17028;47.642;8.070;2022-10-16T07:18:25;93878.56;;;14.63;86.27
30216;BME280;17028;47.642;8.070;2022-10-16T07:23:29;93892.34;;;14.76;86.52
30216;BME280;17028;47.642;8.070;2022-10-16T07:28:30;93887.25;;;14.89;86.85
30216;BME280;17028;47.642;8.070;2022-10-16T07:33:33;93893.16;;;15.06;87.23
30216;BME280;17028;47.642;8.070;2022-10-16T07:38:35;93904.50;;;15.27;87.45
30216;BME280;17028;47.642;8.070;2022-10-16T07:43:36;93906.81;;;15.43;86.92
30216;BME280;17028;47.642;8.070;2022-10-16T07:48:37;93918.06;;;15.58;86.07
30216;BME280;17028;47.642;8.070;2022-10-16T07:53:38;93922.53;;;15.65;85.07
30216;BME280;17028;47.642;8.070;2022-10-16T07:58:39;93926.88;;;15.81;84.86
30216;BME280;17028;47.642;8.070;2022-10-16T08:03:45;93943.16;;;15.92;83.43
30216;BME280;17028;47.642;8.070;2022-10-16T08:08:47;93935.56;;;15.98;81.69
30216;BME280;17028;47.642;8.070;2022-10-16T08:13:48;93942.91;;;16.10;80.90
30216;BME280;17028;47.642;8.070;2022-10-16T08:18:49;93941.50;;;16.20;81.01
30216;BME280;17028;47.642;8.070;2022-10-16T08:23:53;93938.56;;;16.30;81.15
30216;BME280;17028;47.642;8.070;2022-10-16T08:28:55;93948.38;;;16.34;80.59
30216;BME280;17028;47.642;8.070;2022-10-16T08:33:56;93953.69;;;16.47;81.07
30216;BME280;17028;47.642;8.070;2022-10-16T08:38:57;93955.38;;;16.60;80.95
30216;BME280;17028;47.642;8.070;2022-10-16T08:44:30;93957.13;;;16.78;82.15
30216;BME280;17028;47.642;8.070;2022-10-16T08:49:33;93971.34;;;16.89;81.28
30216;BME280;17028;47.642;8.070;2022-10-16T08:54:43;93960.59;;;17.08;81.37
30216;BME280;17028;47.642;8.070;2022-10-16T08:59:46;93973.38;;;17.30;80.83
30216;BME280;17028;47.642;8.070;2022-10-16T09:15:56;93991.19;;;17.68;78.38
30216;BME280;17028;47.642;8.070;2022-10-16T09:21:23;94003.28;;;17.74;76.79
30216;BME280;17028;47.642;8.070;2022-10-16T09:26:24;93993.66;;;17.86;75.86
30216;BME280;17028;47.642;8.070;2022-10-16T09:31:26;93996.13;;;17.99;74.49
30216;BME280;17028;47.642;8.070;2022-10-16T09:36:28;93993.69;;;18.18;72.35
30216;BME280;17028;47.642;8.070;2022-10-16T09:41:29;93998.16;;;18.31;71.55
30216;BME280;17028;47.642;8.070;2022-10-16T09:46:33;94000.41;;;18.27;70.33
30216;BME280;17028;47.642;8.070;2022-10-16T09:51:36;94007.63;;;18.28;70.24
30216;BME280;17028;47.642;8.070;2022-10-16T09:56:37;93997.16;;;18.34;70.04
30216;BME280;17028;47.642;8.070;2022-10-16T10:01:52;93993.09;;;18.41;70.41
30216;BME280;17028;47.642;8.070;2022-10-16T10:06:57;94004.41;;;18.46;70.44
30216;BME280;17028;47.642;8.070;2022-10-16T10:12:00;94017.06;;;18.57;71.32
30216;BME280;17028;47.642;8.070;2022-10-16T10:22:26;94013.22;;;18.97;68.74
30216;BME280;17028;47.642;8.070;2022-10-16T10:59:14;94001.69;;;20.41;60.75
30216;BME280;17028;47.642;8.070;2022-10-16T11:09:40;94004.25;;;20.84;59.29
30216;BME280;17028;47.642;8.070;2022-10-16T11:14:48;93999.81;;;21.11;58.66
30216;BME280;17028;47.642;8.070;2022-10-16T11:20:32;94000.53;;;21.17;56.61
30216;BME280;17028;47.642;8.070;2022-10-16T11:25:34;93996.97;;;21.06;56.35
30216;BME280;17028;47.642;8.070;2022-10-16T11:41:34;93978.88;;;21.20;54.89
30216;BME280;17028;47.642;8.070;2022-10-16T11:46:38;93980.41;;;21.27;54.74
30216;BME280;17028;47.642;8.070;2022-10-16T11:52:15;93975.31;;;21.08;55.10
30216;BME280;17028;47.642;8.070;2022-10-16T11:57:31;93979.78;;;20.87;57.37
30216;BME280;17028;47.642;8.070;2022-10-16T12:02:51;93973.34;;;20.86;57.78
30216;BME280;17028;47.642;8.070;2022-10-16T12:13:28;93980.44;;;21.21;56.31
30216;BME280;17028;47.642;8.070;2022-10-16T12:18:30;93975.03;;;21.17;56.23
30216;BME280;17028;47.642;8.070;2022-10-16T12:23:38;93977.34;;;21.13;54.18
30216;BME280;17028;47.642;8.070;2022-10-16T12:28:40;93974.22;;;21.23;55.07
30216;BME280;17028;47.642;8.070;2022-10-16T12:33:56;93966.72;;;21.31;54.22
30216;BME280;17028;47.642;8.070;2022-10-16T12:38:58;93965.38;;;21.43;54.26
30216;BME280;17028;47.642;8.070;2022-10-16T12:44:01;93965.13;;;21.41;54.42
30216;BME280;17028;47.642;8.070;2022-10-16T12:54:15;93971.31;;;21.40;53.87
30216;BME280;17028;47.642;8.070;2022-10-16T13:21:01;93964.84;;;21.45;53.22
30216;BME280;17028;47.642;8.070;2022-10-16T13:26:22;93963.03;;;21.47;53.02
30216;BME280;17028;47.642;8.070;2022-10-16T13:31:25;93958.38;;;21.44;52.57
30216;BME280;17028;47.642;8.070;2022-10-16T13:36:30;93957.63;;;21.44;51.52
30216;BME280;17028;47.642;8.070;2022-10-16T13:41:31;93963.84;;;21.36;52.81
30216;BME280;17028;47.642;8.070;2022-10-16T13:46:32;93965.91;;;21.36;52.02
30216;BME280;17028;47.642;8.070;2022-10-16T13:51:35;93964.63;;;21.37;52.67
30216;BME280;17028;47.642;8.070;2022-10-16T13:56:36;93966.50;;;21.17;52.98
30216;BME280;17028;47.642;8.070;2022-10-16T14:01:43;93961.38;;;21.16;53.75
30216;BME280;17028;47.642;8.070;2022-10-16T14:06:46;93966.47;;;21.29;53.20
30216;BME280;17028;47.642;8.070;2022-10-16T14:11:53;93966.53;;;21.12;54.23
30216;BME280;17028;47.642;8.070;2022-10-16T14:16:56;93967.31;;;21.12;53.36
30216;BME280;17028;47.642;8.070;2022-10-16T14:21:58;93963.97;;;21.08;53.15
30216;BME280;17028;47.642;8.070;2022-10-16T14:27:00;93970.63;;;21.16;53.32
30216;BME280;17028;47.642;8.070;2022-10-16T14:32:05;93960.09;;;21.17;52.22
30216;BME280;17028;47.642;8.070;2022-10-16T14:37:14;93976.06;;;21.14;52.82
30216;BME280;17028;47.642;8.070;2022-10-16T14:42:18;93972.94;;;21.24;53.48
30216;BME280;17028;47.642;8.070;2022-10-16T14:47:25;93969.53;;;21.31;53.94
30216;BME280;17028;47.642;8.070;2022-10-16T14:52:27;93972.94;;;21.24;53.59
30216;BME280;17028;47.642;8.070;2022-10-16T14:57:37;93977.13;;;21.11;54.56
30216;BME280;17028;47.642;8.070;2022-10-16T15:02:39;93979.72;;;21.04;55.25
30216;BME280;17028;47.642;8.070;2022-10-16T15:07:40;93976.88;;;21.09;55.60
30216;BME280;17028;47.642;8.070;2022-10-16T15:12:42;93977.41;;;21.02;55.30
30216;BME280;17028;47.642;8.070;2022-10-16T15:17:43;93980.53;;;20.93;55.82
30216;BME280;17028;47.642;8.070;2022-10-16T15:22:44;93988.75;;;20.96;55.79
30216;BME280;17028;47.642;8.070;2022-10-16T15:27:45;93983.09;;;20.96;56.42
30216;BME280;17028;47.642;8.070;2022-10-16T15:32:46;93990.56;;;20.99;56.82
30216;BME280;17028;47.642;8.070;2022-10-16T15:37:47;93993.66;;;20.96;56.49
30216;BME280;17028;47.642;8.070;2022-10-16T15:42:49;93987.19;;;20.95;55.92
30216;BME280;17028;47.642;8.070;2022-10-16T15:47:50;93988.00;;;20.90;55.60
30216;BME280;17028;47.642;8.070;2022-10-16T15:52:51;94000.88;;;20.97;55.68
30216;BME280;17028;47.642;8.070;2022-10-16T15:57:52;94006.25;;;21.06;56.62
30216;BME280;17028;47.642;8.070;2022-10-16T16:02:55;94014.22;;;21.13;57.09
30216;BME280;17028;47.642;8.070;2022-10-16T16:07:56;94007.75;;;21.18;57.56
30216;BME280;17028;47.642;8.070;2022-10-16T16:12:57;94015.50;;;21.18;58.02
30216;BME280;17028;47.642;8.070;2022-10-16T16:17:59;94010.84;;;21.15;58.37
30216;BME280;17028;47.642;8.070;2022-10-16T16:23:02;94014.47;;;21.10;58.61
30216;BME280;17028;47.642;8.070;2022-10-16T16:28:04;94012.44;;;21.05;58.92
30216;BME280;17028;47.642;8.070;2022-10-16T16:33:05;94018.66;;;20.92;59.21
30216;BME280;17028;47.642;8.070;2022-10-16T16:38:06;94031.06;;;20.72;59.46
30216;BME280;17028;47.642;8.070;2022-10-16T16:43:07;94032.34;;;20.48;60.11
30216;BME280;17028;47.642;8.070;2022-10-16T16:48:08;94041.59;;;20.26;60.36
30216;BME280;17028;47.642;8.070;2022-10-16T16:53:09;94053.94;;;20.06;60.72
30216;BME280;17028;47.642;8.070;2022-10-16T16:58:10;94056.19;;;19.79;61.46
30216;BME280;17028;47.642;8.070;2022-10-16T17:03:11;94062.78;;;19.53;62.06
30216;BME280;17028;47.642;8.070;2022-10-16T17:08:12;94073.00;;;19.33;62.58
30216;BME280;17028;47.642;8.070;2022-10-16T17:13:13;94072.41;;;19.24;63.15
30216;BME280;17028;47.642;8.070;2022-10-16T17:18:15;94086.19;;;19.05;63.68
30216;BME280;17028;47.642;8.070;2022-10-16T17:23:17;94092.78;;;18.90;63.93
30216;BME280;17028;47.642;8.070;2022-10-16T17:28:18;94094.47;;;18.76;64.53
30216;BME280;17028;47.642;8.070;2022-10-16T17:33:20;94102.06;;;18.59;64.68
30216;BME280;17028;47.642;8.070;2022-10-16T17:38:21;94104.13;;;18.32;65.73
30216;BME280;17028;47.642;8.070;2022-10-16T17:43:22;94126.88;;;18.23;65.83
30216;BME280;17028;47.642;8.070;2022-10-16T17:48:23;94124.28;;;18.19;65.92
30216;BME280;17028;47.642;8.070;2022-10-16T17:53:24;94128.19;;;18.01;66.57
30216;BME280;17028;47.642;8.070;2022-10-16T17:58:25;94138.50;;;17.83;66.89
30216;BME280;17028;47.642;8.070;2022-10-16T18:03:26;94142.69;;;17.67;67.38
30216;BME280;17028;47.642;8.070;2022-10-16T18:08:27;94154.25;;;17.49;68.16
30216;BME280;17028;47.642;8.070;2022-10-16T18:13:29;94152.44;;;17.31;68.76
30216;BME280;17028;47.642;8.070;2022-10-16T18:18:30;94155.25;;;17.10;69.71
30216;BME280;17028;47.642;8.070;2022-10-16T18:23:34;94151.19;;;16.96;70.00
30216;BME280;17028;47.642;8.070;2022-10-16T18:28:35;94164.03;;;16.82;70.57
30216;BME280;17028;47.642;8.070;2022-10-16T18:33:37;94170.19;;;16.66;71.39
30216;BME280;17028;47.642;8.070;2022-10-16T18:38:38;94172.31;;;16.56;71.48
30216;BME280;17028;47.642;8.070;2022-10-16T18:43:40;94170.84;;;16.46;71.68
30216;BME280;17028;47.642;8.070;2022-10-16T18:48:42;94164.84;;;16.38;72.19
30216;BME280;17028;47.642;8.070;2022-10-16T18:53:46;94173.66;;;16.31;72.38
30216;BME280;17028;47.642;8.070;2022-10-16T18:58:48;94174.81;;;16.24;72.49
30216;BME280;17028;47.642;8.070;2022-10-16T19:03:55;94190.81;;;16.18;72.32
30216;BME280;17028;47.642;8.070;2022-10-16T19:08:57;94184.81;;;16.10;72.39
30216;BME280;17028;47.642;8.070;2022-10-16T19:13:58;94196.44;;;16.03;72.58
30216;BME280;17028;47.642;8.070;2022-10-16T19:19:01;94195.84;;;15.99;72.73
30216;BME280;17028;47.642;8.070;2022-10-16T19:24:03;94205.59;;;15.89;72.96
30216;BME280;17028;47.642;8.070;2022-10-16T19:29:05;94220.03;;;15.81;73.12
30216;BME280;17028;47.642;8.070;2022-10-16T19:34:09;94209.41;;;15.76;73.16
30216;BME280;17028;47.642;8.070;2022-10-16T19:39:12;94218.81;;;15.73;73.09
30216;BME280;17028;47.642;8.070;2022-10-16T19:44:15;94218.09;;;15.63;73.40
30216;BME280;17028;47.642;8.070;2022-10-16T19:49:17;94222.34;;;15.59;73.46
30216;BME280;17028;47.642;8.070;2022-10-16T19:54:20;94227.88;;;15.53;73.25
30216;BME280;17028;47.642;8.070;2022-10-16T19:59:22;94235.50;;;15.52;73.41
30216;BME280;17028;47.642;8.070;2022-10-16T20:04:23;94242.84;;;15.50;73.26
30216;BME280;17028;47.642;8.070;2022-10-16T20:09:24;94248.66;;;15.46;73.31
30216;BME280;17028;47.642;8.070;2022-10-16T20:14:25;94251.66;;;15.43;73.34
30216;BME280;17028;47.642;8.070;2022-10-16T20:19:26;94259.59;;;15.44;73.29
30216;BME280;17028;47.642;8.070;2022-10-16T20:24:27;94256.78;;;15.44;73.11
30216;BME280;17028;47.642;8.070;2022-10-16T20:29:28;94264.72;;;15.46;72.86
30216;BME280;17028;47.642;8.070;2022-10-16T20:34:29;94274.72;;;15.47;72.63
30216;BME280;17028;47.642;8.070;2022-10-16T20:39:30;94277.22;;;15.45;72.82
30216;BME280;17028;47.642;8.070;2022-10-16T20:44:32;94280.22;;;15.41;72.77
30216;BME280;17028;47.642;8.070;2022-10-16T20:49:33;94279.63;;;15.37;73.21
30216;BME280;17028;47.642;8.070;2022-10-16T20:54:34;94275.41;;;15.32;73.44
30216;BME280;17028;47.642;8.070;2022-10-16T20:59:35;94281.53;;;15.31;73.52
30216;BME280;17028;47.642;8.070;2022-10-16T21:04:36;94281.69;;;15.27;73.45
30216;BME280;17028;47.642;8.070;2022-10-16T21:09:37;94284.19;;;15.25;73.36
30216;BME280;17028;47.642;8.070;2022-10-16T21:14:39;94277.97;;;15.21;73.39
30216;BME280;17028;47.642;8.070;2022-10-16T21:19:40;94288.59;;;15.17;73.41
30216;BME280;17028;47.642;8.070;2022-10-16T21:24:41;94304.38;;;15.14;73.62
30216;BME280;17028;47.642;8.070;2022-10-16T21:29:42;94284.88;;;15.11;73.55
30216;BME280;17028;47.642;8.070;2022-10-16T21:34:43;94285.03;;;15.07;73.42
30216;BME280;17028;47.642;8.070;2022-10-16T21:39:44;94290.69;;;14.98;74.04
30216;BME280;17028;47.642;8.070;2022-10-16T21:44:45;94289.75;;;14.92;74.17
30216;BME280;17028;47.642;8.070;2022-10-16T21:49:46;94285.91;;;14.89;74.31
30216;BME280;17028;47.642;8.070;2022-10-16T21:54:47;94285.91;;;14.89;74.21
30216;BME280;17028;47.642;8.070;2022-10-16T21:59:48;94288.84;;;14.85;74.30
30216;BME280;17028;47.642;8.070;2022-10-16T22:04:49;94288.53;;;14.83;74.42
30216;BME280;17028;47.642;8.070;2022-10-16T22:09:51;94285.44;;;14.81;74.41
30216;BME280;17028;47.642;8.070;2022-10-16T22:14:52;94282.63;;;14.81;73.95
30216;BME280;17028;47.642;8.070;2022-10-16T22:19:53;94292.91;;;14.84;73.87
30216;BME280;17028;47.642;8.070;2022-10-16T22:24:54;94288.72;;;14.80;73.89
30216;BME280;17028;47.642;8.070;2022-10-16T22:29:55;94284.34;;;14.79;73.74
30216;BME280;17028;47.642;8.070;2022-10-16T22:34:56;94291.38;;;14.74;73.94
30216;BME280;17028;47.642;8.070;2022-10-16T22:39:57;94289.66;;;14.67;74.06
30216;BME280;17028;47.642;8.070;2022-10-16T22:44:58;94283.75;;;14.65;74.31
30216;BME280;17028;47.642;8.070;2022-10-16T22:49:59;94292.31;;;14.62;74.37
30216;BME280;17028;47.642;8.070;2022-10-16T22:55:00;94282.81;;;14.59;74.71
30216;BME280;17028;47.642;8.070;2022-10-16T23:00:01;94283.13;;;14.61;74.55
30216;BME280;17028;47.642;8.070;2022-10-16T23:05:02;94285.31;;;14.57;75.01
30216;BME280;17028;47.642;8.070;2022-10-16T23:10:05;94286.22;;;14.54;75.06
30216;BME280;17028;47.642;8.070;2022-10-16T23:15:07;94294.34;;;14.52;75.08
30216;BME280;17028;47.642;8.070;2022-10-16T23:20:08;94290.47;;;14.49;75.20
30216;BME280;17028;47.642;8.070;2022-10-16T23:25:09;94297.31;;;14.48;75.27
30216;BME280;17028;47.642;8.070;2022-10-16T23:30:10;94304.16;;;14.47;75.20
30216;BME280;17028;47.642;8.070;2022-10-16T23:35:11;94302.59;;;14.46;75.20
30216;BME280;17028;47.642;8.070;2022-10-16T23:40:12;94297.19;;;14.43;75.61
30216;BME280;17028;47.642;8.070;2022-10-16T23:45:13;94296.38;;;14.42;75.59
30216;BME280;17028;47.642;8.070;2022-10-16T23:50:14;94306.50;;;14.40;75.53
30216;BME280;17028;47.642;8.070;2022-10-16T23:55:15;94307.44;;;14.36;75.68
